Time;durP1;ratioP1;P1;durP2;ratioP2;P2;SDS_P1;SDS_P2;PMS_P1;PMS_P2;Temp;Humidity;BMP_temperature;BMP_pressure;BME280_temperature;BME280_humidity;BME280_pressure;Samples;Min_cycle;Max_cycle;Signal;HPM_P1;HPM_P2
2022/01/11 00:02:15;;;;;;;1.85;0.70;;;;;;;;;;5057239;28;20096;-79
2022/01/11 00:04:41;;;;;;;0.60;0.60;;;;;;;;;;5055330;28;20036;-77
2022/01/11 00:07:10;;;;;;;1.27;0.98;;;;;;;;;;5055389;28;20025;-79
2022/01/11 00:09:39;;;;;;;3.15;1.60;;;;;;;;;;5055760;28;20025;-77
2022/01/11 00:12:07;;;;;;;1.42;0.88;;;;;;;;;;5057155;28;20016;-80
2022/01/11 00:14:32;;;;;;;1.30;1.10;;;;;;;;;;5054941;28;20045;-79
2022/01/11 00:16:59;;;;;;;1.20;0.88;;;;;;;;;;5055348;28;20036;-77
2022/01/11 00:19:24;;;;;;;1.42;1.30;;;;;;;;;;5056997;28;20025;-79
2022/01/11 00:21:50;;;;;;;2.45;1.58;;;;;;;;;;5056280;28;20031;-79
2022/01/11 00:24:32;;;;;;;1.17;0.93;;;;;;;;;;5055127;28;20032;-79
2022/01/11 00:27:03;;;;;;;0.60;0.60;;;;;;;;;;5057286;28;20116;-79
2022/01/11 00:29:29;;;;;;;0.57;0.57;;;;;;;;;;5071313;28;20024;-79
2022/01/11 00:31:58;;;;;;;0.80;0.80;;;;;;;;;;5071907;28;20028;-79
2022/01/11 00:34:25;;;;;;;0.82;0.63;;;;;;;;;;5055040;28;20044;-79
2022/01/11 00:36:50;;;;;;;0.40;0.40;;;;;;;;;;5056992;28;20369;-76
2022/01/11 00:39:16;;;;;;;0.50;0.50;;;;;;;;;;5054910;28;20074;-80
2022/01/11 00:41:42;;;;;;;0.77;0.63;;;;;;;;;;5054594;28;20525;-78
2022/01/11 00:44:08;;;;;;;1.05;0.77;;;;;;;;;;5054966;28;20032;-81
2022/01/11 00:46:34;;;;;;;0.68;0.60;;;;;;;;;;5055169;28;20029;-79
2022/01/11 00:48:59;;;;;;;0.70;0.70;;;;;;;;;;5054528;28;20021;-79
2022/01/11 00:51:25;;;;;;;1.15;0.70;;;;;;;;;;5054832;28;20108;-77
2022/01/11 00:53:50;;;;;;;1.27;1.15;;;;;;;;;;5071537;28;20036;-81
2022/01/11 00:56:15;;;;;;;1.10;0.45;;;;;;;;;;5071306;28;20414;-80
2022/01/11 00:58:41;;;;;;;1.13;0.98;;;;;;;;;;5060497;28;20318;-77
2022/01/11 01:01:07;;;;;;;0.50;0.50;;;;;;;;;;5054403;28;20040;-80
2022/01/11 01:03:33;;;;;;;1.27;0.90;;;;;;;;;;5054424;28;21146;-79
2022/01/11 01:05:58;;;;;;;0.60;0.60;;;;;;;;;;5054190;28;20029;-79
2022/01/11 01:08:24;;;;;;;1.10;0.95;;;;;;;;;;5054339;28;20352;-78
2022/01/11 01:10:50;;;;;;;1.35;1.00;;;;;;;;;;5054140;28;20074;-77
2022/01/11 01:13:19;;;;;;;0.77;0.75;;;;;;;;;;5053993;28;20136;-80
2022/01/11 01:15:47;;;;;;;1.50;1.10;;;;;;;;;;5053932;28;20033;-79
2022/01/11 01:18:15;;;;;;;4.85;2.70;;;;;;;;;;5053785;28;20028;-78
2022/01/11 01:20:40;;;;;;;2.05;1.80;;;;;;;;;;5054074;28;20461;-81
2022/01/11 01:23:06;;;;;;;2.85;0.80;;;;;;;;;;5053475;28;20073;-78
2022/01/11 01:25:31;;;;;;;0.50;0.50;;;;;;;;;;5055988;28;20505;-79
2022/01/11 01:27:57;;;;;;;1.95;0.70;;;;;;;;;;5053736;28;20028;-77
2022/01/11 01:30:22;;;;;;;0.88;0.70;;;;;;;;;;5053354;28;20518;-79
2022/01/11 01:32:48;;;;;;;0.55;0.55;;;;;;;;;;5055321;28;20085;-78
2022/01/11 01:35:14;;;;;;;0.50;0.50;;;;;;;;;;5055657;28;20111;-79
2022/01/11 01:37:40;;;;;;;1.30;0.90;;;;;;;;;;5053523;28;20135;-79
2022/01/11 01:40:06;;;;;;;0.80;0.80;;;;;;;;;;5053837;28;20024;-79
2022/01/11 01:42:32;;;;;;;1.02;0.65;;;;;;;;;;5053916;28;20054;-80
2022/01/11 01:45:03;;;;;;;0.60;0.47;;;;;;;;;;5053769;28;20067;-81
2022/01/11 01:47:28;;;;;;;0.95;0.70;;;;;;;;;;5053693;28;20028;-78
2022/01/11 01:49:54;;;;;;;1.02;0.93;;;;;;;;;;5054154;28;20024;-80
2022/01/11 01:52:19;;;;;;;0.68;0.68;;;;;;;;;;5053433;28;20024;-82
2022/01/11 01:54:45;;;;;;;0.60;0.60;;;;;;;;;;5054011;28;20032;-79
2022/01/11 01:57:13;;;;;;;0.68;0.68;;;;;;;;;;5056361;28;20384;-82
2022/01/11 01:59:39;;;;;;;0.70;0.70;;;;;;;;;;5056541;28;20250;-80
2022/01/11 02:02:07;;;;;;;1.70;0.93;;;;;;;;;;5057091;28;20024;-80
2022/01/11 02:04:32;;;;;;;1.17;1.00;;;;;;;;;;5056952;28;20032;-79
2022/01/11 02:06:58;;;;;;;1.35;1.25;;;;;;;;;;5057540;28;20024;-78
2022/01/11 02:09:23;;;;;;;1.80;1.40;;;;;;;;;;5055499;28;21115;-79
2022/01/11 02:11:49;;;;;;;1.80;1.50;;;;;;;;;;5054745;28;20025;-80
2022/01/11 02:14:14;;;;;;;1.25;1.15;;;;;;;;;;5070290;28;20491;-79
2022/01/11 02:16:40;;;;;;;1.52;1.40;;;;;;;;;;5077815;28;20019;-80
2022/01/11 02:19:05;;;;;;;1.88;1.63;;;;;;;;;;5073459;28;20021;-80
2022/01/11 02:21:31;;;;;;;2.30;2.00;;;;;;;;;;5057059;28;20070;-80
2022/01/11 02:23:57;;;;;;;2.47;1.75;;;;;;;;;;5063618;28;20071;-81
2022/01/11 02:26:23;;;;;;;2.25;1.92;;;;;;;;;;5077371;28;20036;-80
2022/01/11 02:28:48;;;;;;;1.92;1.77;;;;;;;;;;5077838;28;20463;-79
2022/01/11 02:31:14;;;;;;;1.83;1.65;;;;;;;;;;5077547;28;20031;-81
2022/01/11 02:33:43;;;;;;;2.17;1.90;;;;;;;;;;5077338;28;20379;-79
2022/01/11 02:36:10;;;;;;;1.90;1.60;;;;;;;;;;5080397;28;20039;-79
2022/01/11 02:38:36;;;;;;;2.95;2.13;;;;;;;;;;5079670;28;20024;-79
2022/01/11 02:41:02;;;;;;;1.63;1.52;;;;;;;;;;5080225;28;20030;-77
2022/01/11 02:43:28;;;;;;;2.85;1.98;;;;;;;;;;5079747;28;20030;-79
2022/01/11 02:45:58;;;;;;;1.90;1.70;;;;;;;;;;5081438;28;20111;-77
2022/01/11 02:48:24;;;;;;;1.98;1.75;;;;;;;;;;5076778;28;20479;-78
2022/01/11 02:50:49;;;;;;;2.55;1.90;;;;;;;;;;5059747;28;20028;-78
2022/01/11 02:53:15;;;;;;;1.92;1.60;;;;;;;;;;5059298;28;20032;-79
2022/01/11 02:55:43;;;;;;;2.10;1.90;;;;;;;;;;5058789;28;20029;-79
2022/01/11 02:58:09;;;;;;;2.30;2.10;;;;;;;;;;5058400;28;20024;-79
2022/01/11 03:00:34;;;;;;;2.42;2.15;;;;;;;;;;5058560;28;20081;-79
2022/01/11 03:03:10;;;;;;;1.92;1.73;;;;;;;;;;5059563;28;20106;-78
2022/01/11 03:05:35;;;;;;;2.67;2.42;;;;;;;;;;5058427;28;20020;-78
2022/01/11 03:08:01;;;;;;;2.78;2.33;;;;;;;;;;5059441;28;20035;-79
2022/01/11 03:10:32;;;;;;;3.35;2.00;;;;;;;;;;5058320;28;20051;-79
2022/01/11 03:13:08;;;;;;;3.95;2.25;;;;;;;;;;5058400;28;20084;-78
2022/01/11 03:15:34;;;;;;;3.25;2.58;;;;;;;;;;5059567;28;20029;-78
2022/01/11 03:18:00;;;;;;;3.40;2.63;;;;;;;;;;5057961;28;20069;-80
2022/01/11 03:20:25;;;;;;;2.88;2.58;;;;;;;;;;5057369;28;20027;-79
2022/01/11 03:22:51;;;;;;;3.22;2.83;;;;;;;;;;5058379;28;20036;-78
2022/01/11 03:25:17;;;;;;;2.83;2.40;;;;;;;;;;5056899;28;20032;-78
2022/01/11 03:27:43;;;;;;;3.53;2.67;;;;;;;;;;5057219;28;20049;-79
2022/01/11 03:30:10;;;;;;;2.85;2.38;;;;;;;;;;5056280;28;20024;-78
2022/01/11 03:32:35;;;;;;;3.10;2.60;;;;;;;;;;5056761;28;20478;-79
2022/01/11 03:35:01;;;;;;;3.58;3.28;;;;;;;;;;5056137;28;20028;-78
2022/01/11 03:37:26;;;;;;;3.92;2.92;;;;;;;;;;5078346;28;20493;-78
2022/01/11 03:39:52;;;;;;;5.05;3.22;;;;;;;;;;5076263;28;20028;-77
2022/01/11 03:42:17;;;;;;;4.25;3.53;;;;;;;;;;5077314;28;20024;-79
2022/01/11 03:44:43;;;;;;;4.60;3.90;;;;;;;;;;5078218;28;20043;-79
2022/01/11 03:47:08;;;;;;;4.78;3.97;;;;;;;;;;5078107;28;20055;-78
2022/01/11 03:49:34;;;;;;;5.15;3.90;;;;;;;;;;5078018;28;20027;-79
2022/01/11 03:51:59;;;;;;;4.30;3.88;;;;;;;;;;5077601;28;20036;-77
2022/01/11 03:54:28;;;;;;;5.32;4.35;;;;;;;;;;5076593;28;20031;-78
2022/01/11 03:56:53;;;;;;;6.67;4.13;;;;;;;;;;5076669;28;20382;-76
2022/01/11 03:59:19;;;;;;;5.93;4.32;;;;;;;;;;5077951;28;20016;-78
2022/01/11 04:01:45;;;;;;;6.43;4.38;;;;;;;;;;5078719;28;20031;-78
2022/01/11 04:04:11;;;;;;;5.13;4.10;;;;;;;;;;5076395;28;20029;-77
2022/01/11 04:06:37;;;;;;;5.57;4.57;;;;;;;;;;5076513;28;20025;-79
2022/01/11 04:09:03;;;;;;;5.90;4.70;;;;;;;;;;5076584;28;20872;-78
2022/01/11 04:11:29;;;;;;;6.50;4.80;;;;;;;;;;5076422;28;20028;-78
2022/01/11 04:13:54;;;;;;;9.32;7.22;;;;;;;;;;5076455;28;20494;-76
2022/01/11 04:16:22;;;;;;;7.75;5.55;;;;;;;;;;5076232;28;20503;-78
2022/01/11 04:18:48;;;;;;;12.98;8.45;;;;;;;;;;5077093;28;20028;-78
2022/01/11 04:21:14;;;;;;;11.55;8.88;;;;;;;;;;5076748;28;20494;-76
2022/01/11 04:23:39;;;;;;;8.50;6.07;;;;;;;;;;5076044;28;20024;-80
2022/01/11 04:26:05;;;;;;;7.70;5.93;;;;;;;;;;5075133;28;20020;-79
2022/01/11 04:28:30;;;;;;;7.97;5.53;;;;;;;;;;5075316;28;20024;-80
2022/01/11 04:31:00;;;;;;;9.10;6.88;;;;;;;;;;5075614;28;20470;-80
2022/01/11 04:33:26;;;;;;;12.20;9.27;;;;;;;;;;5074982;28;20032;-80
2022/01/11 04:35:51;;;;;;;13.15;9.60;;;;;;;;;;5076002;28;20024;-79
2022/01/11 04:38:21;;;;;;;13.77;9.18;;;;;;;;;;5075507;28;20467;-81
2022/01/11 04:40:46;;;;;;;12.07;8.55;;;;;;;;;;5075249;28;20106;-76
2022/01/11 04:43:12;;;;;;;9.77;7.15;;;;;;;;;;5074996;28;20123;-79
2022/01/11 04:45:37;;;;;;;10.82;7.60;;;;;;;;;;5075293;28;20016;-78
2022/01/11 04:48:03;;;;;;;8.98;6.88;;;;;;;;;;5074537;28;20031;-79
2022/01/11 04:50:28;;;;;;;13.10;9.18;;;;;;;;;;5075002;28;20028;-78
2022/01/11 04:52:54;;;;;;;11.93;8.45;;;;;;;;;;5074476;28;20465;-78
2022/01/11 04:55:20;;;;;;;14.00;10.10;;;;;;;;;;5075112;28;20538;-78
2022/01/11 04:57:46;;;;;;;13.43;8.40;;;;;;;;;;5074982;28;20051;-78
2022/01/11 05:00:12;;;;;;;49.33;24.45;;;;;;;;;;5076799;28;20047;-78
2022/01/11 05:02:38;;;;;;;16.15;9.98;;;;;;;;;;5074798;28;20465;-77
2022/01/11 05:05:03;;;;;;;12.50;8.82;;;;;;;;;;5076408;28;20025;-77
2022/01/11 05:07:29;;;;;;;12.75;10.40;;;;;;;;;;5074403;28;20020;-78
2022/01/11 05:09:54;;;;;;;12.10;10.15;;;;;;;;;;5074838;28;20020;-78
2022/01/11 05:12:20;;;;;;;9.35;7.43;;;;;;;;;;5075178;28;20459;-77
2022/01/11 05:14:45;;;;;;;10.27;7.20;;;;;;;;;;5074027;28;20047;-76
2022/01/11 05:17:11;;;;;;;11.63;8.25;;;;;;;;;;5074490;28;20024;-78
2022/01/11 05:19:36;;;;;;;12.00;8.70;;;;;;;;;;5074202;28;20016;-78
2022/01/11 05:22:02;;;;;;;12.32;8.43;;;;;;;;;;5073808;28;20031;-76
2022/01/11 05:24:27;;;;;;;17.13;15.32;;;;;;;;;;5074106;28;20024;-77
2022/01/11 05:26:53;;;;;;;29.77;26.83;;;;;;;;;;5076131;28;20085;-77
2022/01/11 05:29:19;;;;;;;13.77;11.52;;;;;;;;;;5073802;28;20024;-78
2022/01/11 05:31:44;;;;;;;10.32;7.38;;;;;;;;;;5071126;28;20128;-78
2022/01/11 05:34:09;;;;;;;9.15;7.70;;;;;;;;;;5054271;28;20135;-77
2022/01/11 05:36:35;;;;;;;9.85;7.15;;;;;;;;;;5054353;28;20020;-78
2022/01/11 05:39:00;;;;;;;14.07;10.00;;;;;;;;;;5062812;28;20107;-79
2022/01/11 05:41:25;;;;;;;19.25;12.27;;;;;;;;;;5063717;28;20024;-78
2022/01/11 05:43:51;;;;;;;11.85;7.80;;;;;;;;;;5060680;28;20031;-78
2022/01/11 05:46:16;;;;;;;25.55;12.95;;;;;;;;;;5062938;28;20511;-79
2022/01/11 05:48:44;;;;;;;72.95;29.50;;;;;;;;;;5068268;28;20047;-79
2022/01/11 05:51:10;;;;;;;68.07;30.63;;;;;;;;;;5070267;28;20161;-78
2022/01/11 05:53:36;;;;;;;19.38;10.85;;;;;;;;;;5074037;28;20542;-77
2022/01/11 05:56:01;;;;;;;21.38;12.40;;;;;;;;;;5073756;28;20455;-79
2022/01/11 05:58:27;;;;;;;57.95;30.42;;;;;;;;;;5075906;28;20113;-79
2022/01/11 06:00:52;;;;;;;13.45;9.00;;;;;;;;;;5074598;28;20732;-77
2022/01/11 06:03:17;;;;;;;31.70;17.90;;;;;;;;;;5074026;28;20358;-78
2022/01/11 06:05:43;;;;;;;8.15;6.18;;;;;;;;;;5075078;28;20058;-78
2022/01/11 06:08:08;;;;;;;9.52;7.13;;;;;;;;;;5074675;28;20028;-78
2022/01/11 06:10:34;;;;;;;7.32;6.05;;;;;;;;;;5073888;28;20038;-78
2022/01/11 06:12:59;;;;;;;91.55;57.53;;;;;;;;;;5073593;28;20121;-77
2022/01/11 06:15:26;;;;;;;38.15;20.40;;;;;;;;;;5073830;28;20376;-78
2022/01/11 06:17:51;;;;;;;89.13;41.05;;;;;;;;;;5073330;28;20097;-77
2022/01/11 06:20:17;;;;;;;37.22;19.23;;;;;;;;;;5073853;28;20031;-77
2022/01/11 06:22:42;;;;;;;25.40;15.55;;;;;;;;;;5075241;28;20391;-79
2022/01/11 06:25:08;;;;;;;29.27;16.95;;;;;;;;;;5073842;28;20031;-78
2022/01/11 06:27:34;;;;;;;24.75;14.35;;;;;;;;;;5070896;28;20474;-77
2022/01/11 06:29:59;;;;;;;36.42;20.30;;;;;;;;;;5053699;28;20025;-78
2022/01/11 06:32:25;;;;;;;37.65;21.65;;;;;;;;;;5052837;28;20033;-78
2022/01/11 06:34:52;;;;;;;126.80;61.17;;;;;;;;;;5053127;28;20116;-78
2022/01/11 06:37:17;;;;;;;26.90;15.85;;;;;;;;;;5053620;28;20994;-74
2022/01/11 06:39:43;;;;;;;38.50;21.50;;;;;;;;;;5053090;28;20028;-78
2022/01/11 06:42:08;;;;;;;15.52;8.70;;;;;;;;;;5053548;28;20024;-75
2022/01/11 06:44:34;;;;;;;15.70;10.23;;;;;;;;;;5052527;28;20523;-76
2022/01/11 06:46:59;;;;;;;13.02;8.45;;;;;;;;;;5053657;28;20040;-79
2022/01/11 06:49:25;;;;;;;15.27;8.93;;;;;;;;;;5055178;28;20498;-77
2022/01/11 06:51:50;;;;;;;27.10;13.20;;;;;;;;;;5053155;28;20089;-80
2022/01/11 06:54:15;;;;;;;13.50;7.88;;;;;;;;;;5054342;28;20064;-76
2022/01/11 06:56:41;;;;;;;141.38;65.10;;;;;;;;;;5054357;28;20055;-76
2022/01/11 06:59:06;;;;;;;40.58;19.02;;;;;;;;;;5053891;28;20033;-77
2022/01/11 07:01:32;;;;;;;20.33;10.70;;;;;;;;;;5051593;28;20078;-77
2022/01/11 07:03:57;;;;;;;33.85;17.75;;;;;;;;;;5061748;28;20032;-78
2022/01/11 07:06:22;;;;;;;17.15;10.07;;;;;;;;;;5072032;28;20019;-77
2022/01/11 07:08:48;;;;;;;12.02;7.53;;;;;;;;;;5074382;28;20024;-78
2022/01/11 07:11:13;;;;;;;7.30;5.47;;;;;;;;;;5074402;28;20442;-77
2022/01/11 07:13:39;;;;;;;9.88;6.32;;;;;;;;;;5073139;28;20055;-77
2022/01/11 07:16:04;;;;;;;8.38;5.82;;;;;;;;;;5072463;28;20494;-77
2022/01/11 07:18:29;;;;;;;12.90;8.48;;;;;;;;;;5073391;28;20048;-77
2022/01/11 07:20:55;;;;;;;20.67;10.13;;;;;;;;;;5073139;28;20032;-78
2022/01/11 07:23:20;;;;;;;11.52;7.05;;;;;;;;;;5076188;28;20113;-76
2022/01/11 07:25:46;;;;;;;17.10;8.27;;;;;;;;;;5076030;28;20052;-76
2022/01/11 07:28:14;;;;;;;68.93;29.40;;;;;;;;;;5077365;28;20024;-77
2022/01/11 07:30:39;;;;;;;27.33;11.93;;;;;;;;;;5076962;28;20028;-77
2022/01/11 07:33:05;;;;;;;20.67;10.15;;;;;;;;;;5076550;28;20035;-78
2022/01/11 07:35:30;;;;;;;18.85;10.13;;;;;;;;;;5077419;28;20053;-78
2022/01/11 07:37:55;;;;;;;41.30;17.40;;;;;;;;;;5078485;28;20467;-77
2022/01/11 07:40:21;;;;;;;12.25;7.43;;;;;;;;;;5077782;28;20032;-80
2022/01/11 07:42:48;;;;;;;29.27;12.88;;;;;;;;;;5077676;28;20020;-78
2022/01/11 07:45:14;;;;;;;28.05;12.10;;;;;;;;;;5077709;28;20047;-77
2022/01/11 07:47:40;;;;;;;9.60;6.05;;;;;;;;;;5076111;28;20360;-78
2022/01/11 07:50:06;;;;;;;80.10;32.50;;;;;;;;;;5076022;28;20672;-79
2022/01/11 07:52:32;;;;;;;24.77;13.70;;;;;;;;;;5076219;28;20020;-78
2022/01/11 07:54:57;;;;;;;32.15;15.70;;;;;;;;;;5076024;28;20032;-79
2022/01/11 07:57:22;;;;;;;52.70;27.38;;;;;;;;;;5075992;28;20024;-80
2022/01/11 07:59:48;;;;;;;43.22;14.60;;;;;;;;;;5078133;28;20024;-79
2022/01/11 08:02:13;;;;;;;47.97;21.08;;;;;;;;;;5075516;28;20028;-79
2022/01/11 08:04:39;;;;;;;11.35;6.80;;;;;;;;;;5075932;28;20051;-79
2022/01/11 08:07:04;;;;;;;24.77;11.20;;;;;;;;;;5076048;28;20116;-76
2022/01/11 08:09:29;;;;;;;17.83;10.02;;;;;;;;;;5075579;28;20368;-78
2022/01/11 08:11:56;;;;;;;76.28;29.20;;;;;;;;;;5075674;28;20035;-79
2022/01/11 08:14:25;;;;;;;41.67;17.48;;;;;;;;;;5074967;28;20510;-80
2022/01/11 08:16:51;;;;;;;15.95;8.43;;;;;;;;;;5075403;28;20024;-77
2022/01/11 08:19:16;;;;;;;39.15;14.13;;;;;;;;;;5075840;28;20028;-79
2022/01/11 08:21:42;;;;;;;55.25;20.48;;;;;;;;;;5075637;28;20024;-78
2022/01/11 08:24:07;;;;;;;20.90;10.88;;;;;;;;;;5075656;28;20035;-78
2022/01/11 08:26:33;;;;;;;60.83;20.15;;;;;;;;;;5075237;28;20486;-79
2022/01/11 08:28:58;;;;;;;19.23;11.00;;;;;;;;;;5075763;28;20023;-78
2022/01/11 08:31:23;;;;;;;19.23;10.75;;;;;;;;;;5075659;28;20391;-79
2022/01/11 08:33:49;;;;;;;31.13;15.02;;;;;;;;;;5075257;28;20028;-78
2022/01/11 08:36:14;;;;;;;53.03;22.55;;;;;;;;;;5075264;28;20028;-78
2022/01/11 08:38:40;;;;;;;20.95;11.35;;;;;;;;;;5074815;28;20023;-78
2022/01/11 08:41:05;;;;;;;25.55;13.27;;;;;;;;;;5072710;28;20028;-77
2022/01/11 08:43:31;;;;;;;32.60;19.35;;;;;;;;;;5064573;28;20024;-78
2022/01/11 08:45:56;;;;;;;19.02;11.68;;;;;;;;;;5064906;28;20485;-79
2022/01/11 08:48:22;;;;;;;25.38;15.90;;;;;;;;;;5062715;28;20838;-79
2022/01/11 08:50:52;;;;;;;55.70;27.30;;;;;;;;;;5064091;28;20024;-79
2022/01/11 08:53:18;;;;;;;;;;;;;;;;;;5062608;28;20394;-79
2022/01/11 08:55:43;;;;;;;29.33;13.67;;;;;;;;;;5060632;28;20433;-78
2022/01/11 08:58:08;;;;;;;19.52;11.05;;;;;;;;;;5064931;28;20038;-79
2022/01/11 09:00:34;;;;;;;34.30;18.85;;;;;;;;;;5063923;28;20486;-78
2022/01/11 09:02:59;;;;;;;16.30;12.30;;;;;;;;;;5064700;28;20455;-78
2022/01/11 09:05:24;;;;;;;43.55;28.00;;;;;;;;;;5063726;28;20020;-79
2022/01/11 09:07:50;;;;;;;22.17;13.10;;;;;;;;;;5063745;28;20083;-78
2022/01/11 09:10:15;;;;;;;34.80;18.52;;;;;;;;;;5054386;28;20028;-78
2022/01/11 09:12:41;;;;;;;27.88;17.30;;;;;;;;;;5063506;28;20036;-77
2022/01/11 09:15:07;;;;;;;15.60;10.48;;;;;;;;;;5055134;28;20036;-77
2022/01/11 09:17:33;;;;;;;22.65;18.23;;;;;;;;;;5054419;28;20027;-79
2022/01/11 09:19:58;;;;;;;75.93;34.15;;;;;;;;;;5055187;28;20025;-77
2022/01/11 09:22:24;;;;;;;44.40;23.58;;;;;;;;;;5057349;28;20459;-78
2022/01/11 09:24:50;;;;;;;28.95;15.82;;;;;;;;;;5054875;28;20076;-78
2022/01/11 09:27:15;;;;;;;37.95;22.20;;;;;;;;;;5053929;28;20027;-76
2022/01/11 09:29:41;;;;;;;26.17;14.93;;;;;;;;;;5054589;28;20087;-77
2022/01/11 09:32:07;;;;;;;25.52;16.67;;;;;;;;;;5054644;28;20027;-77
2022/01/11 09:34:32;;;;;;;49.08;27.05;;;;;;;;;;5054068;28;20459;-78
2022/01/11 09:36:58;;;;;;;30.38;17.60;;;;;;;;;;5054969;28;20020;-77
2022/01/11 09:39:23;;;;;;;16.45;11.77;;;;;;;;;;5055355;28;20062;-78
2022/01/11 09:41:52;;;;;;;21.00;13.43;;;;;;;;;;5054961;28;20501;-79
2022/01/11 09:44:20;;;;;;;33.10;18.85;;;;;;;;;;5055651;28;20111;-78
2022/01/11 09:47:11;;;;;;;19.17;12.57;;;;;;;;;;5056308;28;20467;-78
2022/01/11 09:49:37;;;;;;;31.35;16.83;;;;;;;;;;5055631;28;20024;-78
2022/01/11 09:52:07;;;;;;;20.35;13.20;;;;;;;;;;5054661;28;20463;-78
2022/01/11 09:54:35;;;;;;;103.68;45.72;;;;;;;;;;5055597;28;20035;-78
2022/01/11 09:57:01;;;;;;;28.83;15.75;;;;;;;;;;5055814;28;20028;-78
2022/01/11 09:59:29;;;;;;;21.00;13.63;;;;;;;;;;5055295;28;20459;-79
2022/01/11 10:02:05;;;;;;;;;;;;;;;;;;;;;
2022/01/11 10:05:06;;;;;;;;;;;;;;;;;;;;;
2022/01/11 10:07:34;;;;;;;24.50;16.23;;;;;;;;;;5056129;28;20035;-78
2022/01/11 10:09:59;;;;;;;21.42;14.45;;;;;;;;;;5055197;28;20565;-78
2022/01/11 10:12:34;;;;;;;20.90;13.32;;;;;;;;;;5055790;28;20025;-79
2022/01/11 10:15:03;;;;;;;32.40;20.77;;;;;;;;;;5055890;28;20145;-77
2022/01/11 10:17:30;;;;;;;26.42;16.77;;;;;;;;;;5055622;28;20066;-76
2022/01/11 10:20:12;;;;;;;48.30;24.98;;;;;;;;;;5056489;28;20082;-78
2022/01/11 10:22:58;;;;;;;23.13;15.35;;;;;;;;;;5056827;28;20020;-76
2022/01/11 10:25:24;;;;;;;41.33;23.95;;;;;;;;;;5054710;28;20082;-79
2022/01/11 10:27:57;;;;;;;24.13;14.30;;;;;;;;;;5054704;28;20032;-77
2022/01/11 10:30:33;;;;;;;31.65;19.95;;;;;;;;;;5055836;28;20044;-78
2022/01/11 10:33:04;;;;;;;34.35;20.45;;;;;;;;;;5055062;28;20020;-79
2022/01/11 10:35:44;;;;;;;21.70;13.90;;;;;;;;;;5056406;28;20028;-79
2022/01/11 10:38:27;;;;;;;27.52;17.30;;;;;;;;;;5057129;28;20020;-79
2022/01/11 10:40:53;;;;;;;30.92;19.92;;;;;;;;;;5056119;28;20383;-78
2022/01/11 10:43:19;;;;;;;42.45;25.33;;;;;;;;;;5054259;28;20017;-77
2022/01/11 10:45:49;;;;;;;44.92;25.58;;;;;;;;;;5056056;28;20070;-77
2022/01/11 10:48:18;;;;;;;51.83;30.05;;;;;;;;;;5056809;28;20032;-75
2022/01/11 10:50:45;;;;;;;37.67;21.73;;;;;;;;;;5054458;28;20490;-77
2022/01/11 10:53:12;;;;;;;43.10;26.33;;;;;;;;;;5055148;28;20374;-78
2022/01/11 10:55:38;;;;;;;42.90;28.73;;;;;;;;;;5056041;28;20120;-79
2022/01/11 10:58:05;;;;;;;72.32;36.67;;;;;;;;;;5058763;28;20205;-78
2022/01/11 11:00:33;;;;;;;38.65;23.30;;;;;;;;;;5058215;28;20028;-78
2022/01/11 11:03:13;;;;;;;125.93;54.25;;;;;;;;;;5060903;28;20055;-78
2022/01/11 11:05:39;;;;;;;101.88;49.63;;;;;;;;;;5078407;28;20428;-77
2022/01/11 11:08:10;;;;;;;44.42;22.55;;;;;;;;;;5078051;28;20039;-78
2022/01/11 11:10:37;;;;;;;46.38;24.02;;;;;;;;;;5079720;28;20489;-77
2022/01/11 11:13:03;;;;;;;36.78;20.38;;;;;;;;;;5077475;28;20054;-77
2022/01/11 11:15:30;;;;;;;173.27;74.18;;;;;;;;;;5077816;28;20486;-76
2022/01/11 11:17:56;;;;;;;50.00;26.55;;;;;;;;;;5079013;28;21077;-79
2022/01/11 11:20:22;;;;;;;46.75;26.08;;;;;;;;;;5079260;28;20020;-78
2022/01/11 11:22:47;;;;;;;31.80;19.50;;;;;;;;;;5077869;28;20368;-77
2022/01/11 11:25:19;;;;;;;38.75;21.67;;;;;;;;;;5078250;28;20104;-78
2022/01/11 11:27:45;;;;;;;50.45;26.40;;;;;;;;;;5078118;28;20097;-77
2022/01/11 11:30:10;;;;;;;32.90;20.75;;;;;;;;;;5077371;28;20490;-77
2022/01/11 11:32:38;;;;;;;35.10;21.17;;;;;;;;;;5078752;28;20093;-79
2022/01/11 11:35:04;;;;;;;26.98;18.75;;;;;;;;;;5076988;28;20128;-79
2022/01/11 11:37:31;;;;;;;37.40;22.05;;;;;;;;;;5076794;28;20089;-78
2022/01/11 11:39:58;;;;;;;27.95;17.25;;;;;;;;;;5076377;28;20375;-79
2022/01/11 11:42:24;;;;;;;29.75;18.63;;;;;;;;;;5076356;28;20020;-79
2022/01/11 11:44:50;;;;;;;54.25;32.03;;;;;;;;;;5077087;28;20024;-79
2022/01/11 11:47:24;;;;;;;39.05;25.80;;;;;;;;;;5079100;28;20032;-79
2022/01/11 11:49:51;;;;;;;44.10;26.15;;;;;;;;;;5076401;28;20028;-79
2022/01/11 11:52:20;;;;;;;26.02;16.20;;;;;;;;;;5076738;28;20100;-78
2022/01/11 11:54:53;;;;;;;23.33;15.73;;;;;;;;;;5075567;28;20082;-77
2022/01/11 11:57:19;;;;;;;27.90;17.23;;;;;;;;;;5076675;28;20491;-78
2022/01/11 11:59:55;;;;;;;24.02;15.27;;;;;;;;;;5075826;28;20031;-78
2022/01/11 12:02:31;;;;;;;21.23;13.98;;;;;;;;;;5078433;28;20346;-79
2022/01/11 12:04:57;;;;;;;21.13;13.57;;;;;;;;;;5076901;28;20028;-79
2022/01/11 12:07:37;;;;;;;22.65;14.10;;;;;;;;;;5075192;28;20031;-78
2022/01/11 12:10:05;;;;;;;22.70;14.75;;;;;;;;;;5076823;28;20016;-78
2022/01/11 12:12:40;;;;;;;20.77;13.70;;;;;;;;;;5076851;28;20023;-79
2022/01/11 12:15:31;;;;;;;26.48;15.68;;;;;;;;;;5075670;28;20024;-77
2022/01/11 12:17:59;;;;;;;29.45;17.05;;;;;;;;;;5075699;28;20107;-79
2022/01/11 12:20:40;;;;;;;36.25;17.85;;;;;;;;;;5077222;28;20024;-78
2022/01/11 12:23:06;;;;;;;41.75;20.02;;;;;;;;;;5077136;28;20441;-78
2022/01/11 12:25:41;;;;;;;27.08;16.75;;;;;;;;;;5077546;28;20101;-81
2022/01/11 12:28:07;;;;;;;175.15;63.60;;;;;;;;;;5077388;28;20048;-78
2022/01/11 12:30:32;;;;;;;55.78;25.70;;;;;;;;;;5077139;28;20051;-77
2022/01/11 12:33:18;;;;;;;70.10;32.17;;;;;;;;;;5076744;28;20038;-78
2022/01/11 12:35:54;;;;;;;31.23;19.05;;;;;;;;;;5076991;28;20094;-77
2022/01/11 12:38:20;;;;;;;25.13;15.32;;;;;;;;;;5076405;28;20020;-77
2022/01/11 12:40:45;;;;;;;25.55;16.52;;;;;;;;;;5075166;28;20028;-78
2022/01/11 12:43:20;;;;;;;48.58;25.52;;;;;;;;;;5076280;28;20371;-77
2022/01/11 12:45:55;;;;;;;25.10;15.20;;;;;;;;;;5077539;28;20024;-78
2022/01/11 12:48:39;;;;;;;33.28;20.00;;;;;;;;;;5076929;28;20063;-80
2022/01/11 12:51:04;;;;;;;32.63;20.35;;;;;;;;;;5074469;28;20027;-80
2022/01/11 12:53:29;;;;;;;29.42;17.85;;;;;;;;;;5074812;28;20028;-78
2022/01/11 12:55:56;;;;;;;37.70;25.23;;;;;;;;;;5080799;28;20028;-79
2022/01/11 12:58:21;;;;;;;39.95;22.25;;;;;;;;;;5095479;28;20083;-78
2022/01/11 13:00:46;;;;;;;34.20;19.10;;;;;;;;;;5095836;28;20024;-78
2022/01/11 13:03:12;;;;;;;165.40;65.43;;;;;;;;;;5095282;28;20786;-77
2022/01/11 13:05:40;;;;;;;36.70;19.65;;;;;;;;;;5067594;28;20024;-79
2022/01/11 13:08:07;;;;;;;27.55;17.25;;;;;;;;;;5063855;28;20078;-79
2022/01/11 13:10:33;;;;;;;27.17;16.05;;;;;;;;;;5063572;28;20019;-78
2022/01/11 13:13:11;;;;;;;24.23;14.73;;;;;;;;;;5067291;28;20572;-78
2022/01/11 13:15:37;;;;;;;35.60;19.77;;;;;;;;;;5093383;28;20028;-81
2022/01/11 13:18:07;;;;;;;34.10;19.65;;;;;;;;;;5094838;28;20023;-79
2022/01/11 13:20:32;;;;;;;55.28;24.48;;;;;;;;;;5092216;28;20517;-81
2022/01/11 13:23:30;;;;;;;46.92;25.48;;;;;;;;;;5093999;28;20051;-82
2022/01/11 13:26:01;;;;;;;51.08;22.52;;;;;;;;;;5094854;28;20028;-78
2022/01/11 13:28:38;;;;;;;52.72;23.73;;;;;;;;;;5093938;28;20077;-79
2022/01/11 13:31:08;;;;;;;37.35;18.33;;;;;;;;;;5064819;28;20048;-79
2022/01/11 13:33:36;;;;;;;38.17;18.88;;;;;;;;;;5068830;28;20032;-80
2022/01/11 13:36:11;;;;;;;37.03;19.67;;;;;;;;;;5068042;28;20024;-78
2022/01/11 13:38:36;;;;;;;29.88;17.33;;;;;;;;;;5065723;28;20066;-79
2022/01/11 13:41:03;;;;;;;24.98;14.40;;;;;;;;;;5062963;28;20024;-78
2022/01/11 13:43:34;;;;;;;24.27;14.25;;;;;;;;;;5062867;28;20527;-80
2022/01/11 13:45:59;;;;;;;30.95;16.80;;;;;;;;;;5062967;28;20376;-78
2022/01/11 13:48:25;;;;;;;21.13;13.98;;;;;;;;;;5058777;28;20035;-79
2022/01/11 13:50:53;;;;;;;22.75;14.13;;;;;;;;;;5055590;28;20070;-79
2022/01/11 13:53:29;;;;;;;21.38;13.73;;;;;;;;;;5053632;28;20029;-79
2022/01/11 13:55:59;;;;;;;23.83;15.98;;;;;;;;;;5056474;28;20099;-78
2022/01/11 13:58:24;;;;;;;24.27;15.80;;;;;;;;;;5058272;28;20553;-79
2022/01/11 14:00:50;;;;;;;31.90;19.13;;;;;;;;;;5055079;28;20103;-80
2022/01/11 14:03:17;;;;;;;29.08;17.70;;;;;;;;;;5053895;28;20019;-80
2022/01/11 14:05:43;;;;;;;19.95;13.35;;;;;;;;;;5053942;28;20068;-80
2022/01/11 14:08:10;;;;;;;32.97;19.63;;;;;;;;;;5055522;28;20424;-79
2022/01/11 14:10:37;;;;;;;23.30;15.65;;;;;;;;;;5057081;28;20027;-80
2022/01/11 14:13:06;;;;;;;38.15;20.02;;;;;;;;;;5054823;28;20044;-78
2022/01/11 14:15:32;;;;;;;30.67;17.20;;;;;;;;;;5055010;28;20032;-79
2022/01/11 14:17:58;;;;;;;29.27;16.70;;;;;;;;;;5056650;28;20078;-78
2022/01/11 14:20:25;;;;;;;28.80;17.13;;;;;;;;;;5057429;28;20023;-78
2022/01/11 14:22:52;;;;;;;25.60;16.02;;;;;;;;;;5057854;28;20468;-77
2022/01/11 14:25:20;;;;;;;29.30;18.52;;;;;;;;;;5057308;28;20463;-77
2022/01/11 14:27:55;;;;;;;27.55;18.08;;;;;;;;;;5056154;28;20055;-77
2022/01/11 14:30:21;;;;;;;101.72;34.63;;;;;;;;;;5070565;28;20020;-77